Louisbourg, Canada
Current Conditions -  °F | °C
As of 8:00 PM on Tuesday 25 Nov 2014 (Local Time) from CYQY Reporting Station
Broken Clouds Broken Clouds  
Wind Chill: 52°   Ceiling: 21000
Heat Index: 52°   Visibility: 15mi
Dew Point: 46°   Wind: 9mph
Humidity: 82%   Direction: 200°SSW
Pressure: 29.75"   Gusts: NA
Location:  45.92°N, 59.98°W
Report Text: CYQY 260000Z 20008KT 15SM BKN210 BKN240 11/08 A2975 RMK CS6CI1 PRESRR SLP077
Loading
Personal Weather Stations






























Interactive Weather Map New forecast layout! Learn more

10-Day Weather Forecast

Advertisements
Track Severe Weather on mobile